CheckWX is a tool to help pilots better visualize weather data.  It is not intended as a substitute for an official pre-flight weather briefing.

10:31:48 UTC

SBMG METAR
Regional de Maringá - Sílvio Nane Junior Airport
Maringá, Brazil
Current

32 mins ago

SBMG 241000Z 00000KT CAVOK 20/16 Q1014
Observed
Feb-24 @ 10:00 UTC
Visibility
10,000+ meters
Flight Rules
VFR
Cloud Levels
  • Clear skies
Temperature
20°C / 68°F
Dewpoint
16°C / 61°F
Humidity
78%
Altimeter
29.94" Hg
Pressure
1013.92 hPa
Previous

2 hours ago

SBMG 240900Z 09005KT CAVOK 21/16 Q1013
Observed
Feb-24 @ 09:00 UTC
Wind
  • 090° at 5 KTS
Visibility
10,000+ meters
Flight Rules
VFR
Cloud Levels
  • Clear skies
Temperature
21°C / 70°F
Dewpoint
16°C / 61°F
Humidity
73%
Altimeter
29.91" Hg
Pressure
1012.92 hPa
Previous

3 hours ago

SBMG 240800Z 05011KT CAVOK 21/16 Q1012
Observed
Feb-24 @ 08:00 UTC
Wind
  • 050° at 11 KTS
Visibility
10,000+ meters
Flight Rules
VFR
Cloud Levels
  • Clear skies
Temperature
21°C / 70°F
Dewpoint
16°C / 61°F
Humidity
73%
Altimeter
29.88" Hg
Pressure
1011.92 hPa